Stonewall, Canada
Current Conditions -  °F | °C
As of 7:00 AM on Thursday 18 Dec 2014 (Local Time) from CYWG Reporting Station
Few Clouds Few Clouds  
Wind Chill: -4°   Ceiling: Unl
Heat Index:   Visibility: 15mi
Dew Point:   Wind: 5mph
Humidity: 85%   Direction: 180°S
Pressure: 30.25"   Gusts: NA
Location:  50.14°N, 97.32°W
Report Text: CYWG 181300Z 18004KT 15SM FEW240 M15/M17 A3025 RMK CI2 SLP268
Loading
Personal Weather Stations






























Interactive Weather Map New forecast layout! Learn more

10-Day Weather Forecast

Advertisements
Track Severe Weather on mobile